createdAt,value
2017-09-17T00:02:11.450Z,91.31
2017-09-17T00:04:41.104Z,90.92
2017-09-17T00:07:09.604Z,91.49
2017-09-17T00:09:38.197Z,91.56
2017-09-17T00:12:07.532Z,91.29
2017-09-17T00:14:36.084Z,92.19
2017-09-17T00:17:04.832Z,93.43
2017-09-17T00:19:33.529Z,93.17
2017-09-17T00:22:02.974Z,92.54
2017-09-17T00:24:32.327Z,91.89
2017-09-17T00:27:00.916Z,91.26
2017-09-17T00:29:29.521Z,91.29
2017-09-17T00:31:58.102Z,90.76
2017-09-17T00:34:27.514Z,89.97
2017-09-17T00:36:56.030Z,89.99
2017-09-17T00:39:25.329Z,89.89
2017-09-17T00:41:54.007Z,90.19
2017-09-17T00:44:23.274Z,89.65
2017-09-17T00:46:51.925Z,89.63
2017-09-17T00:49:21.300Z,89.61
2017-09-17T00:51:49.618Z,89.37
2017-09-17T00:54:17.950Z,90.06
2017-09-17T00:56:46.320Z,90.17
2017-09-17T00:59:14.659Z,89.62
2017-09-17T01:01:43.426Z,89.29
2017-09-17T01:04:12.620Z,88.72
2017-09-17T01:06:40.957Z,88.89
2017-09-17T01:09:09.566Z,89.42
2017-09-17T01:11:39.294Z,89.64
2017-09-17T01:14:08.724Z,89.68
2017-09-17T01:16:37.289Z,89.27
2017-09-17T01:19:05.630Z,88.80
2017-09-17T01:21:34.651Z,88.29
2017-09-17T01:24:03.336Z,91.94
2017-09-17T01:26:32.125Z,91.38
2017-09-17T01:29:01.246Z,90.67
2017-09-17T01:31:29.566Z,91.50
2017-09-17T01:33:57.907Z,90.88
2017-09-17T01:36:26.989Z,91.70
2017-09-17T01:38:55.298Z,91.92
2017-09-17T01:41:24.404Z,91.66
2017-09-17T01:43:53.478Z,92.72
2017-09-17T01:46:22.568Z,93.34
2017-09-17T01:48:50.904Z,93.42
2017-09-17T01:51:19.210Z,93.11
2017-09-17T01:53:47.552Z,92.16
2017-09-17T01:56:15.893Z,91.96
2017-09-17T01:58:44.205Z,93.42
2017-09-17T02:01:12.523Z,92.58
2017-09-17T02:03:40.861Z,92.42
2017-09-17T02:06:09.170Z,92.13
2017-09-17T02:08:37.485Z,91.92
2017-09-17T02:11:05.835Z,91.62
2017-09-17T02:13:34.147Z,91.07
2017-09-17T02:16:02.478Z,90.23
2017-09-17T02:18:30.810Z,89.47
2017-09-17T02:20:59.125Z,89.76
2017-09-17T02:23:27.442Z,89.75
2017-09-17T02:25:55.771Z,89.68
2017-09-17T02:28:24.844Z,89.36
2017-09-17T02:30:53.930Z,90.52
2017-09-17T02:33:22.271Z,91.23
2017-09-17T02:35:50.579Z,90.06
2017-09-17T02:38:18.894Z,90.06
2017-09-17T02:40:47.998Z,89.57
2017-09-17T02:43:17.075Z,89.42
2017-09-17T02:45:45.400Z,88.84
2017-09-17T02:48:13.766Z,88.28
2017-09-17T02:50:42.086Z,87.73
2017-09-17T02:53:10.410Z,87.80
2017-09-17T02:55:39.519Z,87.86
2017-09-17T02:58:07.951Z,87.42
2017-09-17T03:00:36.269Z,87.03
2017-09-17T03:03:05.367Z,87.59
2017-09-17T03:05:34.443Z,88.63
2017-09-17T03:08:02.761Z,89.04
2017-09-17T03:10:31.090Z,89.10
2017-09-17T03:12:59.398Z,88.73
2017-09-17T03:15:28.505Z,89.84
2017-09-17T03:17:57.602Z,91.54
2017-09-17T03:20:26.702Z,90.43
2017-09-17T03:22:55.014Z,91.48
2017-09-17T03:25:23.342Z,91.00
2017-09-17T03:27:52.425Z,91.59
2017-09-17T03:30:20.731Z,92.08
2017-09-17T03:32:49.834Z,91.62
2017-09-17T03:35:18.927Z,91.42
2017-09-17T03:37:47.998Z,90.87
2017-09-17T03:40:16.345Z,90.32
2017-09-17T03:42:44.655Z,90.00
2017-09-17T03:45:12.965Z,89.98
2017-09-17T03:47:42.066Z,90.26
2017-09-17T03:50:11.147Z,90.08
2017-09-17T03:52:40.228Z,90.10
2017-09-17T03:55:08.569Z,91.46
2017-09-17T03:57:36.886Z,90.92
2017-09-17T04:00:05.206Z,89.79
2017-09-17T04:02:33.547Z,90.78
2017-09-17T04:05:01.884Z,91.80
2017-09-17T04:07:30.198Z,91.79
2017-09-17T04:09:58.543Z,92.26
2017-09-17T04:12:26.851Z,91.89
2017-09-17T04:14:55.166Z,93.99
2017-09-17T04:17:24.273Z,94.29
2017-09-17T04:19:53.347Z,93.50
2017-09-17T04:22:21.655Z,93.81
2017-09-17T04:24:50.002Z,94.35
2017-09-17T04:27:18.314Z,94.04
2017-09-17T04:29:47.394Z,93.21
2017-09-17T04:32:16.504Z,93.23
2017-09-17T04:34:45.593Z,93.76
2017-09-17T04:37:14.671Z,93.58
2017-09-17T04:39:43.009Z,94.13
2017-09-17T04:42:11.322Z,94.65
2017-09-17T04:44:39.634Z,94.81
2017-09-17T04:47:08.741Z,94.08
2017-09-17T04:49:37.054Z,93.57
2017-09-17T04:52:05.366Z,93.59
2017-09-17T04:54:33.708Z,94.16
2017-09-17T04:57:02.028Z,93.87
2017-09-17T04:59:30.333Z,94.05
2017-09-17T05:01:59.436Z,93.79
2017-09-17T05:04:28.517Z,93.99
2017-09-17T05:06:57.598Z,93.80
2017-09-17T05:09:25.949Z,94.31
2017-09-17T05:11:54.287Z,93.57
2017-09-17T05:14:23.363Z,93.99
2017-09-17T05:16:51.709Z,94.05
2017-09-17T05:19:20.027Z,94.07
2017-09-17T05:21:49.111Z,94.44
2017-09-17T05:24:17.452Z,94.27
2017-09-17T05:26:45.763Z,94.62
2017-09-17T05:29:14.091Z,93.98
2017-09-17T05:31:42.425Z,93.45
2017-09-17T05:34:10.738Z,94.05
2017-09-17T05:36:39.810Z,94.00
2017-09-17T05:39:08.159Z,93.55
2017-09-17T05:41:36.478Z,94.22
2017-09-17T05:44:04.800Z,93.70
2017-09-17T05:46:33.138Z,92.90
2017-09-17T05:49:02.221Z,92.45
2017-09-17T05:51:30.531Z,92.36
2017-09-17T05:53:59.630Z,91.87
2017-09-17T05:56:28.708Z,92.04
2017-09-17T05:58:57.037Z,92.73
2017-09-17T06:01:25.379Z,92.64
2017-09-17T06:03:54.445Z,92.25
2017-09-17T06:06:22.759Z,91.45
2017-09-17T06:08:51.866Z,91.01
2017-09-17T06:11:20.953Z,90.61
2017-09-17T06:13:50.043Z,90.15
2017-09-17T06:16:19.150Z,89.92
2017-09-17T06:18:48.233Z,89.39
2017-09-17T06:21:16.556Z,89.20
2017-09-17T06:23:44.918Z,89.17
2017-09-17T06:26:13.233Z,89.29
2017-09-17T06:28:41.590Z,89.93
2017-09-17T06:31:09.938Z,90.69
2017-09-17T06:33:39.022Z,90.50
2017-09-17T06:36:07.334Z,92.11
2017-09-17T06:38:35.678Z,91.84
2017-09-17T06:41:03.982Z,92.12
2017-09-17T06:43:33.111Z,93.01
2017-09-17T06:46:01.495Z,92.86
2017-09-17T06:48:29.810Z,93.92
2017-09-17T06:50:58.151Z,93.36
2017-09-17T06:53:26.458Z,92.13
2017-09-17T06:55:54.766Z,91.26
2017-09-17T06:58:23.897Z,91.10
2017-09-17T07:00:52.222Z,91.14
2017-09-17T07:03:20.530Z,92.19
2017-09-17T07:05:49.638Z,91.31
2017-09-17T07:08:18.716Z,91.05
2017-09-17T07:10:47.030Z,91.23
2017-09-17T07:13:15.375Z,90.64
2017-09-17T07:15:43.694Z,90.88
2017-09-17T07:18:12.030Z,91.14
2017-09-17T07:20:40.383Z,90.57
2017-09-17T07:23:08.715Z,90.01
2017-09-17T07:25:37.798Z,89.62
2017-09-17T07:28:06.915Z,89.63
2017-09-17T07:30:35.994Z,89.13
2017-09-17T07:33:05.080Z,88.75
2017-09-17T07:35:33.423Z,90.12
2017-09-17T07:38:01.742Z,91.04
2017-09-17T07:40:30.090Z,91.17
2017-09-17T07:42:58.468Z,90.46
2017-09-17T07:45:26.805Z,89.88
2017-09-17T07:47:55.918Z,90.24
2017-09-17T07:50:24.237Z,89.56
2017-09-17T07:52:52.555Z,88.92
2017-09-17T07:55:21.669Z,89.76
2017-09-17T07:57:49.990Z,89.12
2017-09-17T08:00:18.311Z,88.20
2017-09-17T08:02:47.437Z,87.00
2017-09-17T08:05:15.755Z,86.51
2017-09-17T08:07:44.066Z,86.88
2017-09-17T08:10:13.180Z,86.89
2017-09-17T08:12:42.263Z,84.81
2017-09-17T08:15:11.346Z,84.70
2017-09-17T08:17:39.782Z,85.55
2017-09-17T08:20:08.112Z,84.87
2017-09-17T08:22:36.440Z,84.01
2017-09-17T08:25:05.129Z,82.55
2017-09-17T08:27:33.887Z,82.08
2017-09-17T08:30:02.743Z,81.43
2017-09-17T08:32:31.143Z,81.99
2017-09-17T08:34:59.650Z,81.70
2017-09-17T08:37:28.435Z,80.63
2017-09-17T08:39:57.698Z,78.29
2017-09-17T08:42:26.085Z,76.34
2017-09-17T08:44:54.459Z,75.72
2017-09-17T08:47:22.842Z,75.60
2017-09-17T08:49:51.331Z,75.98
2017-09-17T08:52:19.837Z,77.38
2017-09-17T08:54:49.035Z,78.14
2017-09-17T08:57:18.140Z,78.28
2017-09-17T08:59:47.370Z,79.28
2017-09-17T09:02:15.798Z,78.63
2017-09-17T09:04:45.143Z,78.02
2017-09-17T09:07:13.656Z,76.61
2017-09-17T09:09:42.056Z,75.39
2017-09-17T09:12:10.491Z,76.83
2017-09-17T09:14:38.811Z,77.47
2017-09-17T09:17:07.277Z,78.08
2017-09-17T09:19:35.816Z,77.87
2017-09-17T09:22:05.090Z,78.75
2017-09-17T09:24:33.783Z,76.87
2017-09-17T09:27:02.312Z,75.37
2017-09-17T09:29:30.741Z,76.77
2017-09-17T09:31:59.386Z,77.20
2017-09-17T09:34:27.956Z,77.53
2017-09-17T09:36:56.476Z,76.81
2017-09-17T09:39:25.127Z,75.97
2017-09-17T09:41:53.665Z,75.79
2017-09-17T09:44:22.161Z,75.15
2017-09-17T09:46:50.660Z,74.11
2017-09-17T09:49:19.901Z,76.97
2017-09-17T09:51:48.431Z,73.72
2017-09-17T09:54:16.787Z,76.90
2017-09-17T09:56:45.335Z,75.93
2017-09-17T09:59:13.846Z,76.92
2017-09-17T10:01:42.547Z,78.13
2017-09-17T10:04:11.966Z,78.97
2017-09-17T10:06:41.261Z,79.44
2017-09-17T10:09:09.750Z,80.33
2017-09-17T10:11:39.129Z,80.38
2017-09-17T10:14:07.777Z,80.34
2017-09-17T10:16:36.550Z,79.56
2017-09-17T10:19:05.065Z,77.69
2017-09-17T10:21:34.286Z,76.80
2017-09-17T10:24:03.375Z,73.95
2017-09-17T10:26:32.180Z,76.05
2017-09-17T10:29:00.703Z,74.23
2017-09-17T10:31:29.330Z,71.47
2017-09-17T10:33:57.719Z,71.45
2017-09-17T10:36:26.064Z,71.52
2017-09-17T10:38:54.390Z,71.54
2017-09-17T10:41:22.712Z,70.67
2017-09-17T10:43:51.059Z,69.86
2017-09-17T10:46:19.374Z,70.53
2017-09-17T10:48:47.704Z,69.71
2017-09-17T10:51:16.117Z,70.10
2017-09-17T10:53:44.434Z,70.50
2017-09-17T10:56:13.514Z,70.90
2017-09-17T10:58:41.862Z,66.63
2017-09-17T11:01:10.187Z,64.32
2017-09-17T11:03:39.265Z,65.03
2017-09-17T11:06:07.610Z,64.71
2017-09-17T11:08:36.692Z,63.93
2017-09-17T11:11:05.021Z,64.99
2017-09-17T11:13:33.370Z,66.02
2017-09-17T11:16:02.474Z,64.24
2017-09-17T11:18:30.840Z,63.07
2017-09-17T11:20:59.168Z,65.03
2017-09-17T11:23:28.259Z,61.00
2017-09-17T11:25:56.600Z,63.36
2017-09-17T11:28:24.929Z,62.22
2017-09-17T11:30:54.047Z,64.19
2017-09-17T11:33:23.136Z,64.65
2017-09-17T11:35:52.214Z,58.42
2017-09-17T11:38:20.554Z,59.18
2017-09-17T11:40:48.869Z,63.04
2017-09-17T11:43:17.191Z,64.69
2017-09-17T11:45:45.551Z,64.25
2017-09-17T11:48:14.662Z,61.49
2017-09-17T11:50:43.745Z,59.15
2017-09-17T11:53:12.834Z,58.45
2017-09-17T11:55:41.178Z,59.74
2017-09-17T11:58:09.512Z,59.77
2017-09-17T12:00:38.587Z,57.58
2017-09-17T12:03:06.947Z,57.69
2017-09-17T12:05:35.266Z,57.45
2017-09-17T12:08:03.751Z,58.70
2017-09-17T12:10:32.266Z,56.96
2017-09-17T12:13:01.348Z,60.78
2017-09-17T12:15:29.708Z,58.11
2017-09-17T12:17:58.803Z,58.90
2017-09-17T12:20:27.920Z,59.39
2017-09-17T12:22:56.785Z,58.96
2017-09-17T12:25:27.862Z,60.27
2017-09-17T12:27:58.867Z,60.40
2017-09-17T12:30:28.019Z,60.19
2017-09-17T12:32:56.378Z,58.50
2017-09-17T12:35:25.905Z,60.48
2017-09-17T12:37:54.256Z,59.01
2017-09-17T12:40:23.526Z,59.93
2017-09-17T12:42:51.854Z,59.77
2017-09-17T12:45:20.197Z,59.74
2017-09-17T12:47:48.511Z,58.79
2017-09-17T12:50:16.873Z,60.32
2017-09-17T12:52:45.959Z,60.63
2017-09-17T12:55:17.149Z,60.09
2017-09-17T12:57:46.530Z,59.43
2017-09-17T13:00:17.495Z,57.99
2017-09-17T13:02:46.990Z,57.50
2017-09-17T13:05:15.310Z,56.15
2017-09-17T13:07:43.627Z,56.29
2017-09-17T13:10:12.731Z,55.40
2017-09-17T13:12:41.864Z,54.02
2017-09-17T13:15:10.203Z,48.57
2017-09-17T13:17:40.759Z,50.55
2017-09-17T13:20:09.131Z,48.39
2017-09-17T13:22:38.251Z,46.59
2017-09-17T13:25:06.574Z,45.78
2017-09-17T13:27:34.893Z,47.49
2017-09-17T13:30:03.250Z,44.21
2017-09-17T13:32:32.334Z,41.27
2017-09-17T13:35:00.674Z,43.08
2017-09-17T13:37:28.990Z,42.05
2017-09-17T13:39:57.357Z,43.17
2017-09-17T13:42:25.676Z,39.27
2017-09-17T13:44:54.759Z,41.12
2017-09-17T13:47:23.107Z,41.83
2017-09-17T13:49:51.432Z,41.20
2017-09-17T13:52:20.546Z,42.00
2017-09-17T13:54:48.858Z,45.49
2017-09-17T13:57:17.174Z,48.35
2017-09-17T14:00:02.359Z,47.42
2017-09-17T14:02:35.386Z,47.15
2017-09-17T14:18:31.411Z,38.59
2017-09-17T14:20:59.778Z,34.10
2017-09-17T14:23:28.096Z,33.45
2017-09-17T14:25:56.450Z,32.67
2017-09-17T14:28:24.784Z,33.86
2017-09-17T14:30:53.126Z,32.89
2017-09-17T14:33:21.443Z,34.10
2017-09-17T14:35:49.790Z,33.69
2017-09-17T14:38:18.117Z,34.66
2017-09-17T14:40:47.194Z,39.61
2017-09-17T14:43:15.534Z,40.64
2017-09-17T14:45:43.854Z,45.88
2017-09-17T14:48:12.226Z,49.64
2017-09-17T14:50:40.550Z,48.85
2017-09-17T14:53:08.867Z,49.67
2017-09-17T14:55:37.217Z,51.18
2017-09-17T14:58:05.547Z,46.57
2017-09-17T15:00:33.866Z,42.45
2017-09-17T15:03:02.986Z,46.69
2017-09-17T15:05:31.311Z,49.33
2017-09-17T15:08:00.413Z,45.90
2017-09-17T15:10:28.759Z,45.56
2017-09-17T15:12:57.074Z,46.23
2017-09-17T15:15:25.387Z,44.94
2017-09-17T15:17:53.730Z,42.95
2017-09-17T15:20:22.058Z,42.58
2017-09-17T15:22:50.375Z,45.76
2017-09-17T15:25:18.724Z,44.28
2017-09-17T15:27:47.042Z,44.01
2017-09-17T15:30:15.362Z,45.56
2017-09-17T15:32:43.702Z,47.64
2017-09-17T15:35:12.034Z,50.29
2017-09-17T15:37:40.350Z,50.14
2017-09-17T15:40:08.705Z,53.68
2017-09-17T15:42:37.030Z,53.06
2017-09-17T15:45:05.351Z,51.62
2017-09-17T15:47:33.699Z,57.55
2017-09-17T15:50:02.783Z,57.99
2017-09-17T15:52:31.101Z,59.76
2017-09-17T15:54:59.442Z,58.92
2017-09-17T15:57:27.759Z,59.92
2017-09-17T15:59:56.088Z,61.76
2017-09-17T16:02:24.439Z,62.87
2017-09-17T16:04:52.766Z,63.43
2017-09-17T16:07:21.078Z,64.12
2017-09-17T16:09:49.423Z,64.85
2017-09-17T16:12:17.746Z,64.33
2017-09-17T16:14:46.066Z,61.75
2017-09-17T16:17:14.444Z,61.41
2017-09-17T16:19:45.994Z,63.06
2017-09-17T16:22:17.047Z,62.34
2017-09-17T16:24:49.084Z,58.39
2017-09-17T16:27:19.433Z,55.29
2017-09-17T16:29:52.376Z,52.80
2017-09-17T16:32:25.934Z,51.85
2017-09-17T16:34:56.244Z,52.56
2017-09-17T16:37:27.334Z,54.33
2017-09-17T16:39:59.346Z,57.90
2017-09-17T16:42:31.063Z,60.85
2017-09-17T16:45:03.570Z,64.21
2017-09-17T16:47:34.400Z,64.24
2017-09-17T16:50:04.871Z,65.29
2017-09-17T16:52:36.348Z,66.34
2017-09-17T16:55:09.049Z,64.84
2017-09-17T16:57:41.443Z,67.47
2017-09-17T17:00:10.165Z,68.19
2017-09-17T17:02:38.546Z,68.31
2017-09-17T17:05:11.385Z,68.20
2017-09-17T17:07:41.265Z,68.14
2017-09-17T17:10:11.727Z,68.16
2017-09-17T17:12:43.926Z,69.15
2017-09-17T17:15:15.720Z,70.60
2017-09-17T17:17:44.946Z,71.56
2017-09-17T17:20:17.385Z,72.88
2017-09-17T17:22:49.146Z,73.34
2017-09-17T17:25:22.800Z,73.70
2017-09-17T17:27:54.202Z,72.06
2017-09-17T17:30:26.036Z,73.65
2017-09-17T17:32:56.286Z,75.02
2017-09-17T17:35:28.278Z,75.02
2017-09-17T17:37:59.422Z,77.05
2017-09-17T17:40:27.735Z,78.57
2017-09-17T17:42:56.827Z,79.24
2017-09-17T17:45:26.918Z,79.93
2017-09-17T17:47:55.238Z,79.88
2017-09-17T17:50:23.570Z,79.95
2017-09-17T17:52:52.045Z,79.77
2017-09-17T17:55:20.636Z,79.61
2017-09-17T17:57:51.809Z,80.88
2017-09-17T18:00:24.555Z,81.42
2017-09-17T18:02:58.122Z,81.12
2017-09-17T18:05:29.292Z,81.18
2017-09-17T18:08:00.888Z,80.89
2017-09-17T18:10:32.519Z,80.90
2017-09-17T18:13:03.708Z,81.63
2017-09-17T18:15:36.634Z,82.83
2017-09-17T18:18:07.904Z,82.26
2017-09-17T18:20:39.420Z,81.63
2017-09-17T18:23:11.068Z,81.46
2017-09-17T18:25:43.570Z,81.25
2017-09-17T18:28:15.481Z,81.78
2017-09-17T18:30:46.692Z,82.49
2017-09-17T18:33:17.793Z,82.43
2017-09-17T18:35:50.443Z,82.46
2017-09-17T18:38:22.230Z,82.55
2017-09-17T18:40:53.791Z,82.02
2017-09-17T18:43:23.405Z,82.05
2017-09-17T18:45:56.657Z,82.45
2017-09-17T18:48:28.165Z,82.31
2017-09-17T18:51:04.875Z,82.83
2017-09-17T18:53:33.206Z,83.34
2017-09-17T18:56:03.171Z,83.15
2017-09-17T18:58:35.751Z,82.85
2017-09-17T19:01:07.227Z,83.36
2017-09-17T19:03:37.861Z,84.45
2017-09-17T19:06:10.457Z,84.41
2017-09-17T19:08:39.631Z,84.44
2017-09-17T19:11:07.987Z,85.35
2017-09-17T19:13:36.326Z,85.26
2017-09-17T19:16:05.428Z,85.09
2017-09-17T19:18:34.539Z,84.92
2017-09-17T19:21:02.974Z,85.03
2017-09-17T19:23:34.349Z,85.05
2017-09-17T19:26:06.868Z,84.80
2017-09-17T19:28:37.867Z,84.36
2017-09-17T19:31:10.339Z,84.00
2017-09-17T19:33:38.679Z,83.89
2017-09-17T19:36:07.155Z,84.01
2017-09-17T19:38:35.494Z,84.04
2017-09-17T19:41:04.586Z,84.02
2017-09-17T19:43:33.663Z,83.98
2017-09-17T19:46:02.019Z,83.77
2017-09-17T19:48:30.330Z,84.78
2017-09-17T19:50:58.643Z,86.45
2017-09-17T19:53:27.754Z,86.10
2017-09-17T19:55:56.062Z,85.61
2017-09-17T19:58:24.382Z,85.52
2017-09-17T20:00:53.501Z,86.89
2017-09-17T20:03:21.811Z,87.20
2017-09-17T20:05:53.328Z,86.79
2017-09-17T20:08:25.226Z,86.97
2017-09-17T20:10:57.043Z,86.78
2017-09-17T20:13:29.306Z,86.25
2017-09-17T20:16:00.999Z,85.87
2017-09-17T20:18:32.544Z,85.42
2017-09-17T20:21:04.079Z,85.72
2017-09-17T20:23:37.786Z,86.03
2017-09-17T20:26:11.977Z,86.05
2017-09-17T20:28:43.311Z,86.67
2017-09-17T20:31:12.927Z,86.15
2017-09-17T20:33:46.510Z,85.80
2017-09-17T20:36:19.004Z,85.67
2017-09-17T20:38:50.299Z,86.19
2017-09-17T20:41:22.722Z,86.82
2017-09-17T20:43:54.057Z,86.25
2017-09-17T20:46:26.202Z,85.82
2017-09-17T20:48:55.511Z,86.19
2017-09-17T20:51:27.103Z,86.87
2017-09-17T20:53:58.649Z,87.16
2017-09-17T20:56:30.032Z,87.25
2017-09-17T20:59:01.732Z,87.14
2017-09-17T21:01:32.025Z,86.39
2017-09-17T21:04:05.029Z,86.69
2017-09-17T21:06:34.500Z,87.63
2017-09-17T21:09:02.827Z,87.71
2017-09-17T21:11:31.179Z,88.96
2017-09-17T21:13:59.736Z,87.75
2017-09-17T21:16:29.142Z,87.56
2017-09-17T21:18:57.562Z,87.72
2017-09-17T21:21:27.286Z,87.48
2017-09-17T21:23:56.424Z,88.89
2017-09-17T21:26:25.587Z,88.90
2017-09-17T21:28:54.659Z,88.76
2017-09-17T21:31:22.999Z,87.51
2017-09-17T21:33:51.315Z,87.29
2017-09-17T21:36:19.639Z,87.46
2017-09-17T21:38:47.970Z,88.48
2017-09-17T21:41:16.283Z,88.82
2017-09-17T21:43:45.358Z,89.63
2017-09-17T21:46:13.698Z,89.64
2017-09-17T21:48:42.028Z,89.63
2017-09-17T21:51:11.102Z,89.50
2017-09-17T21:53:39.445Z,89.92
2017-09-17T21:56:07.758Z,89.99
2017-09-17T21:58:36.116Z,90.62
2017-09-17T22:01:04.426Z,90.16
2017-09-17T22:03:32.742Z,89.43
2017-09-17T22:06:01.074Z,89.20
2017-09-17T22:08:29.381Z,89.06
2017-09-17T22:10:58.458Z,89.36
2017-09-17T22:13:26.794Z,88.47
2017-09-17T22:15:55.111Z,88.04
2017-09-17T22:18:23.414Z,87.68
2017-09-17T22:20:52.523Z,87.53
2017-09-17T22:23:21.606Z,87.37
2017-09-17T22:25:49.926Z,87.38
2017-09-17T22:28:18.258Z,87.82
2017-09-17T22:30:46.569Z,88.14
2017-09-17T22:33:15.666Z,87.99
2017-09-17T22:35:43.984Z,87.26
2017-09-17T22:38:12.302Z,88.20
2017-09-17T22:40:40.634Z,88.98
2017-09-17T22:43:08.943Z,89.00
2017-09-17T22:45:37.286Z,90.68
2017-09-17T22:48:05.612Z,91.17
2017-09-17T22:50:33.954Z,90.74
2017-09-17T22:53:02.268Z,90.44
2017-09-17T22:55:30.582Z,90.13
2017-09-17T22:57:59.688Z,90.85
2017-09-17T23:00:28.001Z,90.55
2017-09-17T23:02:56.337Z,90.20
2017-09-17T23:05:25.450Z,90.59
2017-09-17T23:07:53.770Z,90.65
2017-09-17T23:10:22.079Z,91.69
2017-09-17T23:12:51.189Z,91.25
2017-09-17T23:15:20.271Z,90.81
2017-09-17T23:17:49.385Z,90.85
2017-09-17T23:20:18.464Z,90.83
2017-09-17T23:22:46.795Z,91.38
2017-09-17T23:25:15.147Z,91.98
2017-09-17T23:27:44.227Z,92.14
2017-09-17T23:30:13.330Z,91.97
2017-09-17T23:32:42.448Z,92.22
2017-09-17T23:35:10.759Z,91.57
2017-09-17T23:37:39.090Z,91.33
2017-09-17T23:40:08.169Z,90.84
2017-09-17T23:42:36.512Z,90.05
2017-09-17T23:45:04.837Z,90.69
2017-09-17T23:47:33.936Z,90.11
2017-09-17T23:50:03.058Z,91.31
2017-09-17T23:52:31.383Z,91.23
2017-09-17T23:54:59.742Z,91.07
2017-09-17T23:57:28.058Z,90.79
2017-09-17T23:59:56.374Z,91.17
